createdAt,value
2018-12-31T00:00:19.287Z,96995.33
2018-12-31T00:01:24.431Z,96995.78
2018-12-31T00:02:28.155Z,96995.40
2018-12-31T00:03:31.595Z,96994.80
2018-12-31T00:04:35.030Z,96997.48
2018-12-31T00:05:38.455Z,96995.86
2018-12-31T00:06:41.958Z,96995.18
2018-12-31T00:07:45.410Z,96997.16
2018-12-31T00:08:48.842Z,96997.86
2018-12-31T00:09:52.280Z,96992.19
2018-12-31T00:10:55.704Z,97000.07
2018-12-31T00:11:59.133Z,97000.39
2018-12-31T00:13:02.574Z,96998.55
2018-12-31T00:14:06.012Z,97001.39
2018-12-31T00:15:09.448Z,96998.70
2018-12-31T00:16:13.030Z,97005.47
2018-12-31T00:17:16.458Z,96998.70
2018-12-31T00:18:19.907Z,96993.73
2018-12-31T00:19:23.368Z,96994.20
2018-12-31T00:20:27.335Z,96992.58
2018-12-31T00:21:30.838Z,96992.44
2018-12-31T00:22:34.271Z,96987.61
2018-12-31T00:23:37.797Z,96988.91
2018-12-31T00:24:41.279Z,96991.20
2018-12-31T00:25:44.723Z,96987.29
2018-12-31T00:26:48.234Z,96990.04
2018-12-31T00:27:51.677Z,96991.66
2018-12-31T00:28:55.137Z,96992.36
2018-12-31T00:29:58.590Z,96986.20
2018-12-31T00:31:02.036Z,96992.11
2018-12-31T00:32:05.535Z,96992.72
2018-12-31T00:33:08.963Z,96995.72
2018-12-31T00:34:12.482Z,96993.73
2018-12-31T00:35:15.910Z,96999.80
2018-12-31T00:36:19.346Z,97003.55
2018-12-31T00:37:22.770Z,97006.39
2018-12-31T00:38:26.199Z,97002.55
2018-12-31T00:39:29.656Z,97005.86
2018-12-31T00:40:33.135Z,97009.99
2018-12-31T00:41:36.575Z,97002.70
2018-12-31T00:42:40.013Z,97006.54
2018-12-31T00:43:43.446Z,97007.45
2018-12-31T00:44:46.898Z,97008.16
2018-12-31T00:45:50.325Z,97002.48
2018-12-31T00:46:53.759Z,97005.23
2018-12-31T00:47:57.198Z,97014.22
2018-12-31T00:49:00.630Z,97012.98
2018-12-31T00:50:04.229Z,97012.14
2018-12-31T00:51:07.703Z,97018.97
2018-12-31T00:52:11.167Z,97013.44
2018-12-31T00:53:14.607Z,97009.84
2018-12-31T00:54:18.059Z,97010.13
2018-12-31T00:55:21.541Z,97003.85
2018-12-31T00:56:25.004Z,97013.52
2018-12-31T00:57:28.444Z,97012.14
2018-12-31T00:58:31.874Z,97010.52
2018-12-31T00:59:35.317Z,97011.99
2018-12-31T01:00:38.783Z,97012.52
2018-12-31T01:01:42.233Z,97011.73
2018-12-31T01:02:45.678Z,97015.34
2018-12-31T01:03:49.129Z,97020.41
2018-12-31T01:04:52.592Z,97018.34
2018-12-31T01:05:56.038Z,97018.66
2018-12-31T01:06:59.559Z,97027.27
2018-12-31T01:08:03.010Z,97022.19
2018-12-31T01:09:06.706Z,97019.05
2018-12-31T01:10:10.205Z,97022.96
2018-12-31T01:11:13.660Z,97020.28
2018-12-31T01:12:17.160Z,97024.27
2018-12-31T01:13:20.594Z,97023.42
2018-12-31T01:14:24.026Z,97020.04
2018-12-31T01:15:27.543Z,97020.21
2018-12-31T01:16:31.003Z,97014.61
2018-12-31T01:17:34.543Z,97012.14
2018-12-31T01:18:37.976Z,97012.28
2018-12-31T01:19:41.406Z,97012.07
2018-12-31T01:20:44.916Z,97017.11
2018-12-31T01:21:48.458Z,97018.42
2018-12-31T01:22:51.890Z,97020.28
2018-12-31T01:23:55.344Z,97024.72
2018-12-31T01:24:58.935Z,97019.83
2018-12-31T01:26:02.382Z,97018.98
2018-12-31T01:27:05.856Z,97024.58
2018-12-31T01:28:09.420Z,97028.95
2018-12-31T01:29:12.844Z,97018.52
2018-12-31T01:30:16.346Z,97021.98
2018-12-31T01:31:19.788Z,97021.34
2018-12-31T01:32:23.307Z,97021.87
2018-12-31T01:33:26.765Z,97016.90
2018-12-31T01:34:30.199Z,97020.57
2018-12-31T01:35:33.629Z,97019.13
2018-12-31T01:36:37.071Z,97016.66
2018-12-31T01:37:40.528Z,97022.18
2018-12-31T01:38:43.989Z,97015.66
2018-12-31T01:39:47.434Z,97014.11
2018-12-31T01:40:50.934Z,97017.80
2018-12-31T01:41:54.385Z,97014.73
2018-12-31T01:42:58.050Z,97014.20
2018-12-31T01:44:01.593Z,97018.47
2018-12-31T01:45:05.566Z,97017.20
2018-12-31T01:46:08.999Z,97023.80
2018-12-31T01:47:12.529Z,97020.87
2018-12-31T01:48:16.016Z,97027.86
2018-12-31T01:49:19.471Z,97020.42
2018-12-31T01:50:22.977Z,97017.42
2018-12-31T01:51:26.470Z,97018.34
2018-12-31T01:52:29.986Z,97023.23
2018-12-31T01:53:33.437Z,97024.55
2018-12-31T01:54:36.940Z,97023.94
2018-12-31T01:55:40.390Z,97025.78
2018-12-31T01:56:43.966Z,97021.52
2018-12-31T01:57:47.462Z,97031.17
2018-12-31T01:58:50.923Z,97030.16
2018-12-31T01:59:54.379Z,97021.98
2018-12-31T02:00:58.018Z,97024.58
2018-12-31T02:02:01.457Z,97024.41
2018-12-31T02:03:06.257Z,97024.27
2018-12-31T02:04:09.709Z,97026.42
2018-12-31T02:05:13.159Z,97021.87
2018-12-31T02:06:16.585Z,97023.56
2018-12-31T02:07:20.039Z,97017.96
2018-12-31T02:08:23.471Z,97030.41
2018-12-31T02:09:27.003Z,97023.63
2018-12-31T02:10:30.454Z,97018.20
2018-12-31T02:11:33.954Z,97020.28
2018-12-31T02:12:37.533Z,97019.05
2018-12-31T02:13:41.070Z,97022.72
2018-12-31T02:14:44.508Z,97016.05
2018-12-31T02:15:47.994Z,97017.89
2018-12-31T02:16:51.431Z,97009.22
2018-12-31T02:17:54.871Z,97014.44
2018-12-31T02:18:58.407Z,97010.63
2018-12-31T02:20:01.841Z,97014.75
2018-12-31T02:21:05.401Z,97015.06
2018-12-31T02:22:09.038Z,97017.28
2018-12-31T02:23:12.474Z,97017.04
2018-12-31T02:24:16.018Z,97015.52
2018-12-31T02:25:19.557Z,97012.34
2018-12-31T02:26:23.098Z,97008.08
2018-12-31T02:27:26.645Z,97012.27
2018-12-31T02:28:30.183Z,97007.52
2018-12-31T02:29:33.830Z,97005.61
2018-12-31T02:30:37.365Z,97008.14
2018-12-31T02:31:40.974Z,97009.98
2018-12-31T02:32:44.440Z,97005.53
2018-12-31T02:33:47.897Z,96998.78
2018-12-31T02:34:51.389Z,96995.11
2018-12-31T02:35:54.918Z,96997.86
2018-12-31T02:36:58.453Z,97005.55
2018-12-31T02:38:01.943Z,97008.94
2018-12-31T02:39:07.083Z,97011.16
2018-12-31T02:40:10.598Z,97006.78
2018-12-31T02:41:14.178Z,97013.20
2018-12-31T02:42:17.701Z,97006.68
2018-12-31T02:43:21.152Z,97006.84
2018-12-31T02:44:24.608Z,97015.06
2018-12-31T02:45:28.116Z,97011.22
2018-12-31T02:46:31.702Z,97008.69
2018-12-31T02:47:35.404Z,97009.14
2018-12-31T02:48:39.012Z,97009.84
2018-12-31T02:49:42.462Z,96999.55
2018-12-31T02:50:45.915Z,97006.22
2018-12-31T02:51:49.468Z,97001.56
2018-12-31T02:52:53.008Z,97010.91
2018-12-31T02:53:56.528Z,97004.31
2018-12-31T02:55:00.246Z,96994.80
2018-12-31T02:56:03.673Z,96999.55
2018-12-31T02:57:07.120Z,96994.72
2018-12-31T02:58:10.691Z,96993.34
2018-12-31T02:59:14.128Z,96992.55
2018-12-31T03:00:17.691Z,96999.08
2018-12-31T03:01:21.115Z,96994.48
2018-12-31T03:02:24.733Z,96982.98
2018-12-31T03:03:28.275Z,96980.91
2018-12-31T03:04:31.807Z,96984.99
2018-12-31T03:05:35.313Z,96975.94
2018-12-31T03:06:38.812Z,96978.16
2018-12-31T03:07:42.277Z,96977.45
2018-12-31T03:08:45.726Z,96979.70
2018-12-31T03:09:49.330Z,96974.84
2018-12-31T03:10:52.963Z,96975.40
2018-12-31T03:11:56.411Z,96984.67
2018-12-31T03:12:59.959Z,96984.16
2018-12-31T03:14:03.421Z,96979.46
2018-12-31T03:15:07.022Z,96977.63
2018-12-31T03:16:10.431Z,96983.06
2018-12-31T03:17:13.928Z,96990.11
2018-12-31T03:18:17.467Z,96983.37
2018-12-31T03:19:20.875Z,96980.91
2018-12-31T03:20:24.313Z,96980.00
2018-12-31T03:21:27.844Z,96977.70
2018-12-31T03:22:31.414Z,96974.99
2018-12-31T03:23:34.982Z,96978.83
2018-12-31T03:24:38.413Z,96977.24
2018-12-31T03:25:42.004Z,96979.01
2018-12-31T03:26:45.434Z,96971.78
2018-12-31T03:27:48.876Z,96972.02
2018-12-31T03:28:52.413Z,96971.46
2018-12-31T03:29:55.959Z,96974.38
2018-12-31T03:30:59.460Z,96972.63
2018-12-31T03:32:02.971Z,96972.94
2018-12-31T03:33:08.208Z,96973.33
2018-12-31T03:34:11.649Z,96973.33
2018-12-31T03:35:15.182Z,96974.25
2018-12-31T03:36:18.687Z,96967.02
2018-12-31T03:37:22.257Z,96972.94
2018-12-31T03:38:25.713Z,96973.78
2018-12-31T03:39:29.273Z,96970.61
2018-12-31T03:40:32.793Z,96969.63
2018-12-31T03:41:36.330Z,96973.86
2018-12-31T03:42:39.825Z,96969.48
2018-12-31T03:43:43.412Z,96973.16
2018-12-31T03:44:46.951Z,96974.00
2018-12-31T03:45:50.434Z,96975.50
2018-12-31T03:46:53.873Z,96978.48
2018-12-31T03:47:57.307Z,96976.20
2018-12-31T03:49:00.745Z,96981.61
2018-12-31T03:50:05.730Z,96980.83
2018-12-31T03:51:09.314Z,96985.42
2018-12-31T03:52:12.771Z,96978.55
2018-12-31T03:53:16.249Z,96971.01
2018-12-31T03:54:19.797Z,96971.56
2018-12-31T03:55:23.338Z,96972.77
2018-12-31T03:56:27.053Z,96964.95
2018-12-31T03:57:30.550Z,96973.02
2018-12-31T03:58:34.120Z,96962.80
2018-12-31T03:59:37.630Z,96962.80
2018-12-31T04:00:41.084Z,96963.25
2018-12-31T04:01:44.570Z,96962.19
2018-12-31T04:02:48.026Z,96960.19
2018-12-31T04:03:51.476Z,96965.40
2018-12-31T04:04:54.969Z,96960.96
2018-12-31T04:05:58.585Z,96962.51
2018-12-31T04:07:02.013Z,96966.56
2018-12-31T04:08:05.520Z,96961.73
2018-12-31T04:09:08.948Z,96959.20
2018-12-31T04:10:12.503Z,96964.73
2018-12-31T04:11:15.945Z,96958.28
2018-12-31T04:12:19.413Z,96960.95
2018-12-31T04:13:22.842Z,96959.66
2018-12-31T04:14:26.270Z,96948.52
2018-12-31T04:15:29.850Z,96947.77
2018-12-31T04:16:33.303Z,96939.78
2018-12-31T04:17:36.734Z,96946.47
2018-12-31T04:18:40.197Z,96955.73
2018-12-31T04:19:43.628Z,96950.53
2018-12-31T04:20:47.061Z,96946.41
2018-12-31T04:21:50.516Z,96949.36
2018-12-31T04:22:53.954Z,96947.53
2018-12-31T04:23:57.384Z,96940.55
2018-12-31T04:25:00.825Z,96941.54
2018-12-31T04:26:04.590Z,96946.36
2018-12-31T04:27:08.046Z,96934.81
2018-12-31T04:28:11.503Z,96935.55
2018-12-31T04:29:14.933Z,96938.61
2018-12-31T04:30:18.351Z,96938.80
2018-12-31T04:31:21.793Z,96938.78
2018-12-31T04:32:25.317Z,96938.25
2018-12-31T04:33:28.773Z,96951.13
2018-12-31T04:34:32.198Z,96952.50
2018-12-31T04:35:35.692Z,96952.61
2018-12-31T04:36:39.115Z,96938.09
2018-12-31T04:37:42.560Z,96947.22
2018-12-31T04:38:46.009Z,96942.39
2018-12-31T04:39:49.443Z,96943.09
2018-12-31T04:40:52.866Z,96947.28
2018-12-31T04:41:56.287Z,96948.76
2018-12-31T04:42:59.723Z,96945.69
2018-12-31T04:44:03.168Z,96944.39
2018-12-31T04:45:06.737Z,96948.30
2018-12-31T04:46:10.162Z,96944.91
2018-12-31T04:47:13.587Z,96957.41
2018-12-31T04:48:17.034Z,96950.06
2018-12-31T04:49:20.474Z,96949.98
2018-12-31T04:50:23.902Z,96952.81
2018-12-31T04:51:27.317Z,96954.13
2018-12-31T04:52:30.747Z,96950.14
2018-12-31T04:53:34.200Z,96948.23
2018-12-31T04:54:37.620Z,96939.25
2018-12-31T04:55:44.584Z,96940.17
2018-12-31T04:56:46.201Z,96931.22
2018-12-31T04:57:49.628Z,96932.98
2018-12-31T04:58:53.078Z,96932.14
2018-12-31T04:59:56.534Z,96935.27
2018-12-31T05:01:00.022Z,96934.81
2018-12-31T05:02:03.521Z,96935.88
2018-12-31T05:03:06.939Z,96934.74
2018-12-31T05:04:10.386Z,96930.91
2018-12-31T05:05:13.953Z,96931.36
2018-12-31T05:06:17.365Z,96936.19
2018-12-31T05:07:20.800Z,96934.81
2018-12-31T05:08:24.211Z,96937.42
2018-12-31T05:09:27.657Z,96934.11
2018-12-31T05:10:31.086Z,96934.42
2018-12-31T05:11:34.577Z,96931.64
2018-12-31T05:12:38.077Z,96933.90
2018-12-31T05:13:41.503Z,96937.87
2018-12-31T05:14:44.942Z,96941.19
2018-12-31T05:15:48.384Z,96939.40
2018-12-31T05:16:51.824Z,96938.86
2018-12-31T05:17:55.250Z,96935.55
2018-12-31T05:18:58.670Z,96942.56
2018-12-31T05:20:02.115Z,96939.04
2018-12-31T05:21:05.577Z,96938.25
2018-12-31T05:22:08.989Z,96935.72
2018-12-31T05:23:12.411Z,96931.18
2018-12-31T05:24:15.835Z,96936.33
2018-12-31T05:25:19.279Z,96934.42
2018-12-31T05:26:22.700Z,96938.09
2018-12-31T05:27:26.137Z,96937.81
2018-12-31T05:28:29.555Z,96943.70
2018-12-31T05:29:32.984Z,96947.77
2018-12-31T05:30:36.433Z,96948.69
2018-12-31T05:31:39.861Z,96945.98
2018-12-31T05:32:43.283Z,96940.77
2018-12-31T05:33:46.701Z,96945.45
2018-12-31T05:34:50.122Z,96943.48
2018-12-31T05:35:53.581Z,96949.30
2018-12-31T05:36:57.024Z,96950.06
2018-12-31T05:38:00.454Z,96954.75
2018-12-31T05:39:05.250Z,96960.11
2018-12-31T05:40:08.674Z,96962.97
2018-12-31T05:41:12.118Z,96963.64
2018-12-31T05:42:15.548Z,96964.55
2018-12-31T05:43:18.981Z,96963.17
2018-12-31T05:44:22.415Z,96964.38
2018-12-31T05:45:25.840Z,96970.72
2018-12-31T05:46:29.288Z,96974.36
2018-12-31T05:47:32.744Z,96966.84
2018-12-31T05:48:36.168Z,96965.25
2018-12-31T05:49:39.593Z,96968.70
2018-12-31T05:50:43.071Z,96974.14
2018-12-31T05:51:46.584Z,96979.14
2018-12-31T05:52:50.083Z,96971.64
2018-12-31T05:53:53.505Z,96972.55
2018-12-31T05:54:56.938Z,96975.63
2018-12-31T05:56:00.361Z,96969.95
2018-12-31T05:57:03.871Z,96959.06
2018-12-31T05:58:07.382Z,96958.14
2018-12-31T05:59:10.802Z,96958.67
2018-12-31T06:00:14.298Z,96952.22
2018-12-31T06:01:17.716Z,96952.44
2018-12-31T06:02:21.153Z,96955.67
2018-12-31T06:03:24.577Z,96956.20
2018-12-31T06:04:28.004Z,96956.66
2018-12-31T06:05:31.447Z,96962.20
2018-12-31T06:06:34.875Z,96963.56
2018-12-31T06:07:38.320Z,96953.59
2018-12-31T06:08:41.759Z,96958.81
2018-12-31T06:09:45.194Z,96972.77
2018-12-31T06:10:48.607Z,96975.75
2018-12-31T06:11:52.040Z,96976.67
2018-12-31T06:12:55.478Z,96973.15
2018-12-31T06:13:58.915Z,96972.38
2018-12-31T06:15:02.394Z,96979.21
2018-12-31T06:16:05.782Z,96977.77
2018-12-31T06:17:09.206Z,96981.52
2018-12-31T06:18:12.692Z,96980.00
2018-12-31T06:19:16.145Z,96979.08
2018-12-31T06:20:19.566Z,96982.07
2018-12-31T06:21:22.995Z,96978.44
2018-12-31T06:22:26.485Z,96984.58
2018-12-31T06:23:29.927Z,96982.13
2018-12-31T06:24:33.439Z,96982.80
2018-12-31T06:25:36.943Z,96984.80
2018-12-31T06:26:40.372Z,96975.62
2018-12-31T06:27:43.810Z,96974.84
2018-12-31T06:28:47.241Z,96974.14
2018-12-31T06:29:50.665Z,96979.35
2018-12-31T06:30:54.088Z,96982.34
2018-12-31T06:31:57.512Z,96982.80
2018-12-31T06:33:00.930Z,96987.34
2018-12-31T06:34:04.435Z,96988.78
2018-12-31T06:35:07.929Z,96987.99
2018-12-31T06:36:11.347Z,96982.19
2018-12-31T06:37:14.774Z,96979.06
2018-12-31T06:38:18.203Z,96974.91
2018-12-31T06:39:21.653Z,96975.69
2018-12-31T06:40:25.079Z,96969.17
2018-12-31T06:41:28.500Z,96971.77
2018-12-31T06:42:31.925Z,96975.89
2018-12-31T06:43:35.344Z,96972.69
2018-12-31T06:44:38.788Z,96979.80
2018-12-31T06:45:42.208Z,96972.81
2018-12-31T06:46:45.632Z,96978.03
2018-12-31T06:47:49.060Z,96980.19
2018-12-31T06:48:52.481Z,96973.15
2018-12-31T06:49:55.934Z,96971.14
2018-12-31T06:50:59.353Z,96983.25
2018-12-31T06:52:02.849Z,96990.41
2018-12-31T06:53:06.417Z,96988.48
2018-12-31T06:54:09.850Z,96992.84
2018-12-31T06:55:13.366Z,96988.20
2018-12-31T06:56:16.784Z,96991.41
2018-12-31T06:57:20.208Z,96991.20
2018-12-31T06:58:25.396Z,96991.52
2018-12-31T06:59:28.939Z,96989.97
2018-12-31T07:00:32.404Z,96983.06
2018-12-31T07:01:35.848Z,96987.42
2018-12-31T07:02:39.346Z,96992.36
2018-12-31T07:03:42.780Z,96995.75
2018-12-31T07:04:46.204Z,97001.81
2018-12-31T07:05:49.650Z,97003.58
2018-12-31T07:06:53.090Z,97005.06
2018-12-31T07:07:56.545Z,97003.10
2018-12-31T07:08:59.986Z,97009.93
2018-12-31T07:10:03.887Z,97012.45
2018-12-31T07:11:07.338Z,97014.60
2018-12-31T07:12:10.796Z,97012.78
2018-12-31T07:13:14.214Z,97010.56
2018-12-31T07:14:17.638Z,97009.04
2018-12-31T07:15:21.063Z,97017.26
2018-12-31T07:16:24.518Z,97016.49
2018-12-31T07:17:27.964Z,97006.59
2018-12-31T07:18:31.393Z,97003.15
2018-12-31T07:19:34.883Z,97004.09
2018-12-31T07:20:38.391Z,97004.69
2018-12-31T07:21:41.823Z,97000.34
2018-12-31T07:22:45.251Z,96995.88
2018-12-31T07:23:48.685Z,96997.89
2018-12-31T07:24:52.176Z,97001.30
2018-12-31T07:25:55.672Z,97005.44
2018-12-31T07:26:59.177Z,97012.30
2018-12-31T07:28:02.695Z,97008.97
2018-12-31T07:29:06.109Z,97012.14
2018-12-31T07:30:09.527Z,97013.92
2018-12-31T07:31:12.953Z,97018.38
2018-12-31T07:32:16.406Z,97016.55
2018-12-31T07:33:19.859Z,97005.48
2018-12-31T07:34:23.286Z,97014.44
2018-12-31T07:35:26.725Z,97018.33
2018-12-31T07:36:30.160Z,97017.41
2018-12-31T07:37:33.596Z,97015.87
2018-12-31T07:38:37.043Z,97021.80
2018-12-31T07:39:40.471Z,97027.17
2018-12-31T07:40:43.891Z,97022.70
2018-12-31T07:41:47.313Z,97030.39
2018-12-31T07:42:50.755Z,97025.27
2018-12-31T07:43:54.223Z,97027.00
2018-12-31T07:44:57.719Z,97033.55
2018-12-31T07:46:01.217Z,97027.64
2018-12-31T07:47:05.221Z,97029.05
2018-12-31T07:48:08.733Z,97026.59
2018-12-31T07:49:12.152Z,97027.44
2018-12-31T07:50:15.585Z,97018.61
2018-12-31T07:51:19.007Z,97024.11
2018-12-31T07:52:22.429Z,97020.59
2018-12-31T07:53:26.179Z,97020.11
2018-12-31T07:54:29.617Z,97023.77
2018-12-31T07:55:33.106Z,97023.63
2018-12-31T07:56:36.532Z,97027.93
2018-12-31T07:57:39.966Z,97024.59
2018-12-31T07:58:43.412Z,97030.48
2018-12-31T07:59:46.867Z,97031.17
2018-12-31T08:00:50.432Z,97025.34
2018-12-31T08:01:53.934Z,97027.91
2018-12-31T08:02:57.360Z,97028.50
2018-12-31T08:04:00.806Z,97026.83
2018-12-31T08:05:04.786Z,97022.92
2018-12-31T08:06:08.209Z,97021.87
2018-12-31T08:07:11.631Z,97027.67
2018-12-31T08:08:15.064Z,97021.16
2018-12-31T08:09:18.607Z,97021.41
2018-12-31T08:10:22.118Z,97020.69
2018-12-31T08:11:25.619Z,97028.06
2018-12-31T08:12:29.040Z,97025.52
2018-12-31T08:13:32.463Z,97020.53
2018-12-31T08:14:35.908Z,97021.49
2018-12-31T08:15:39.364Z,97024.81
2018-12-31T08:16:42.837Z,97018.58
2018-12-31T08:17:46.347Z,97017.83
2018-12-31T08:18:49.793Z,97015.87
2018-12-31T08:19:53.244Z,97015.21
2018-12-31T08:20:56.759Z,97016.59
2018-12-31T08:22:00.181Z,97015.61
2018-12-31T08:23:03.608Z,97023.11
2018-12-31T08:24:07.053Z,97027.00
2018-12-31T08:25:10.559Z,97024.77
2018-12-31T08:26:14.007Z,97026.80
2018-12-31T08:27:17.426Z,97025.09
2018-12-31T08:28:20.862Z,97030.80
2018-12-31T08:29:24.287Z,97022.39
2018-12-31T08:30:27.795Z,97020.37
2018-12-31T08:31:31.242Z,97018.83
2018-12-31T08:32:34.690Z,97016.69
2018-12-31T08:33:38.118Z,97021.16
2018-12-31T08:34:41.577Z,97021.27
2018-12-31T08:35:45.031Z,97025.65
2018-12-31T08:36:48.451Z,97018.70
2018-12-31T08:37:51.875Z,97015.25
2018-12-31T08:38:55.298Z,97023.13
2018-12-31T08:39:58.724Z,97016.31
2018-12-31T08:41:02.172Z,97025.65
2018-12-31T08:42:05.629Z,97024.09
2018-12-31T08:43:09.051Z,97030.64
2018-12-31T08:44:12.550Z,97032.66
2018-12-31T08:45:15.981Z,97033.22
2018-12-31T08:46:19.424Z,97032.44
2018-12-31T08:47:22.869Z,97033.99
2018-12-31T08:48:26.297Z,97032.56
2018-12-31T08:49:29.722Z,97037.34
2018-12-31T08:50:33.148Z,97036.27
2018-12-31T08:51:36.590Z,97035.87
2018-12-31T08:52:40.012Z,97036.00
2018-12-31T08:53:43.453Z,97035.62
2018-12-31T08:54:46.875Z,97031.00
2018-12-31T08:55:50.310Z,97027.20
2018-12-31T08:56:53.757Z,97035.33
2018-12-31T08:57:57.203Z,97033.83
2018-12-31T08:59:00.623Z,97034.42
2018-12-31T09:00:06.165Z,97037.22
2018-12-31T09:01:09.679Z,97037.80
2018-12-31T09:02:13.132Z,97036.72
2018-12-31T09:03:16.552Z,97038.18
2018-12-31T09:04:19.979Z,97031.79
2018-12-31T09:05:23.403Z,97037.00
2018-12-31T09:06:26.910Z,97031.95
2018-12-31T09:07:30.428Z,97036.53
2018-12-31T09:08:34.846Z,97039.77
2018-12-31T09:09:38.275Z,97039.11
2018-12-31T09:10:41.708Z,97044.48
2018-12-31T09:11:45.136Z,97051.05
2018-12-31T09:12:48.589Z,97040.51
2018-12-31T09:13:52.037Z,97042.86
2018-12-31T09:14:55.548Z,97044.07
2018-12-31T09:15:58.972Z,97048.94
2018-12-31T09:17:02.396Z,97047.05
2018-12-31T09:18:05.866Z,97046.52
2018-12-31T09:19:09.285Z,97045.91
2018-12-31T09:20:12.716Z,97039.67
2018-12-31T09:21:16.153Z,97038.89
2018-12-31T09:22:19.579Z,97040.91
2018-12-31T09:23:23.024Z,97051.27
2018-12-31T09:24:26.528Z,97047.55
2018-12-31T09:25:29.955Z,97046.55
2018-12-31T09:26:33.377Z,97055.38
2018-12-31T09:27:36.804Z,97046.91
2018-12-31T09:28:40.250Z,97047.83
2018-12-31T09:29:43.815Z,97046.17
2018-12-31T09:30:47.237Z,97040.03
2018-12-31T09:31:50.671Z,97043.11
2018-12-31T09:32:54.119Z,97038.73
2018-12-31T09:33:57.564Z,97044.63
2018-12-31T09:35:01.003Z,97042.09
2018-12-31T09:36:04.430Z,97029.93
2018-12-31T09:37:07.848Z,97039.27
2018-12-31T09:38:11.287Z,97034.39
2018-12-31T09:39:14.721Z,97029.86
2018-12-31T09:40:18.162Z,97031.79
2018-12-31T09:41:21.580Z,97026.20
2018-12-31T09:42:25.009Z,97026.05
2018-12-31T09:43:28.444Z,97026.45
2018-12-31T09:44:31.963Z,97027.00
2018-12-31T09:45:35.420Z,97025.52
2018-12-31T09:46:38.846Z,97022.45
2018-12-31T09:47:42.292Z,97026.91
2018-12-31T09:48:45.711Z,97031.79
2018-12-31T09:49:49.162Z,97034.05
2018-12-31T09:50:52.610Z,97034.92
2018-12-31T09:51:56.061Z,97040.47
2018-12-31T09:52:59.464Z,97034.11
2018-12-31T09:54:02.951Z,97031.88
2018-12-31T09:55:06.531Z,97031.33
2018-12-31T09:56:09.983Z,97034.70
2018-12-31T09:57:13.408Z,97025.74
2018-12-31T09:58:16.894Z,97028.30
2018-12-31T09:59:20.318Z,97032.17
2018-12-31T10:00:23.756Z,97023.49
2018-12-31T10:01:27.196Z,97020.48
2018-12-31T10:02:30.615Z,97022.98
2018-12-31T10:03:34.038Z,97018.52
2018-12-31T10:04:37.463Z,97016.99
2018-12-31T10:05:40.983Z,97020.06
2018-12-31T10:06:44.408Z,97015.53
2018-12-31T10:07:47.829Z,97016.68
2018-12-31T10:08:51.256Z,97013.17
2018-12-31T10:09:54.745Z,97006.20
2018-12-31T10:10:58.132Z,97004.52
2018-12-31T10:12:01.579Z,97007.25
2018-12-31T10:13:05.008Z,97005.82
2018-12-31T10:14:08.443Z,97011.58
2018-12-31T10:15:11.870Z,97010.81
2018-12-31T10:16:15.346Z,97006.66
2018-12-31T10:17:18.783Z,97015.78
2018-12-31T10:18:22.213Z,97015.53
2018-12-31T10:19:25.634Z,97017.98
2018-12-31T10:20:29.064Z,97018.52
2018-12-31T10:21:32.510Z,97022.76
2018-12-31T10:22:35.938Z,97025.64
2018-12-31T10:23:39.368Z,97024.48
2018-12-31T10:24:42.814Z,97021.16
2018-12-31T10:25:46.236Z,97015.27
2018-12-31T10:26:49.681Z,97010.21
2018-12-31T10:27:53.116Z,97015.76
2018-12-31T10:28:56.620Z,97016.00
2018-12-31T10:30:00.190Z,97012.24
2018-12-31T10:31:03.623Z,97007.39
2018-12-31T10:32:07.066Z,97000.02
2018-12-31T10:33:10.530Z,97001.80
2018-12-31T10:34:14.004Z,96998.42
2018-12-31T10:35:17.496Z,97000.88
2018-12-31T10:36:20.922Z,97001.91
2018-12-31T10:37:24.366Z,97004.84
2018-12-31T10:38:27.808Z,97010.39
2018-12-31T10:39:31.233Z,97008.99
2018-12-31T10:40:34.694Z,97010.39
2018-12-31T10:41:38.084Z,97010.34
2018-12-31T10:42:41.672Z,97012.57
2018-12-31T10:43:45.125Z,97008.88
2018-12-31T10:44:48.614Z,97014.04
2018-12-31T10:45:52.115Z,97014.29
2018-12-31T10:46:55.544Z,97018.97
2018-12-31T10:47:58.988Z,97020.55
2018-12-31T10:49:02.423Z,97019.56
2018-12-31T10:50:05.912Z,97025.17
2018-12-31T10:51:09.338Z,97019.62
2018-12-31T10:52:12.762Z,97017.78
2018-12-31T10:53:16.270Z,97015.19
2018-12-31T10:54:19.719Z,97011.49
2018-12-31T10:55:23.151Z,97015.02
2018-12-31T10:56:26.574Z,97012.24
2018-12-31T10:57:29.995Z,97002.91
2018-12-31T10:58:33.428Z,97004.77
2018-12-31T10:59:36.882Z,97009.20
2018-12-31T11:00:40.329Z,97004.98
2018-12-31T11:01:43.816Z,96995.11
2018-12-31T11:02:47.328Z,97000.08
2018-12-31T11:03:50.784Z,96999.87
2018-12-31T11:04:54.235Z,96996.02
2018-12-31T11:05:57.647Z,96998.95
2018-12-31T11:07:01.069Z,96999.94
2018-12-31T11:08:04.485Z,97000.94
2018-12-31T11:09:07.938Z,96996.11
2018-12-31T11:10:11.427Z,96999.03
2018-12-31T11:11:14.863Z,97004.92
2018-12-31T11:12:21.091Z,96996.88
2018-12-31T11:13:24.526Z,97000.55
2018-12-31T11:14:27.974Z,96999.73
2018-12-31T11:15:31.406Z,97000.02
2018-12-31T11:16:34.817Z,96995.64
2018-12-31T11:17:38.286Z,96991.34
2018-12-31T11:18:41.719Z,96992.65
2018-12-31T11:19:45.172Z,96998.25
2018-12-31T11:20:48.584Z,96988.52
2018-12-31T11:21:52.034Z,96998.18
2018-12-31T11:22:55.532Z,96997.80
2018-12-31T11:23:58.982Z,96993.42
2018-12-31T11:25:02.471Z,96997.09
2018-12-31T11:26:05.907Z,96997.72
2018-12-31T11:27:09.802Z,96993.56
2018-12-31T11:28:13.217Z,96986.83
2018-12-31T11:29:16.666Z,96988.52
2018-12-31T11:30:20.130Z,96991.27
2018-12-31T11:31:30.120Z,96984.67
2018-12-31T11:32:28.751Z,96985.06
2018-12-31T11:33:32.188Z,96985.13
2018-12-31T11:34:35.709Z,96977.91
2018-12-31T11:35:39.131Z,96975.76
2018-12-31T11:36:42.557Z,96979.06
2018-12-31T11:37:45.981Z,96969.72
2018-12-31T11:38:49.423Z,96973.25
2018-12-31T11:39:52.854Z,96969.55
2018-12-31T11:40:56.356Z,96963.20
2018-12-31T11:41:59.790Z,96967.65
2018-12-31T11:43:03.278Z,96960.36
2018-12-31T11:44:06.733Z,96961.98
2018-12-31T11:45:10.158Z,96961.20
2018-12-31T11:46:13.583Z,96962.89
2018-12-31T11:47:17.073Z,96960.67
2018-12-31T11:48:20.498Z,96964.42
2018-12-31T11:49:23.950Z,96963.36
2018-12-31T11:50:27.382Z,96957.75
2018-12-31T11:51:30.800Z,96961.49
2018-12-31T11:52:34.211Z,96957.90
2018-12-31T11:53:37.636Z,96952.07
2018-12-31T11:54:41.090Z,96951.82
2018-12-31T11:55:44.522Z,96950.77
2018-12-31T11:56:47.954Z,96949.61
2018-12-31T11:57:51.388Z,96945.48
2018-12-31T11:58:54.835Z,96946.69
2018-12-31T11:59:58.270Z,96948.75
2018-12-31T12:01:01.777Z,96948.00
2018-12-31T12:02:05.196Z,96945.84
2018-12-31T12:03:11.002Z,96933.71
2018-12-31T12:04:13.806Z,96938.98
2018-12-31T12:05:17.261Z,96935.98
2018-12-31T12:06:20.794Z,96935.25
2018-12-31T12:07:24.215Z,96926.80
2018-12-31T12:08:27.640Z,96931.33
2018-12-31T12:09:31.073Z,96928.04
2018-12-31T12:10:34.545Z,96928.64
2018-12-31T12:11:37.984Z,96934.17
2018-12-31T12:12:41.414Z,96937.17
2018-12-31T12:13:44.836Z,96928.63
2018-12-31T12:14:48.260Z,96936.63
2018-12-31T12:15:51.713Z,96938.38
2018-12-31T12:16:55.165Z,96934.09
2018-12-31T12:17:58.628Z,96929.86
2018-12-31T12:19:02.006Z,96935.98
2018-12-31T12:20:05.964Z,96939.30
2018-12-31T12:21:09.429Z,96938.20
2018-12-31T12:22:13.257Z,96944.07
2018-12-31T12:23:16.664Z,96945.30
2018-12-31T12:24:20.091Z,96951.95
2018-12-31T12:25:23.513Z,96955.73